Time;durP1;ratioP1;P1;durP2;ratioP2;P2;SDS_P1;SDS_P2;PMS_P1;PMS_P2;Temp;Humidity;BMP_temperature;BMP_pressure;BME280_temperature;BME280_humidity;BME280_pressure;Samples;Min_cycle;Max_cycle;Signal;HPM_P1;HPM_P2
2020/12/11 00:02:21;;;;;;;50.47;24.80;;;1.50;99.90;;;;;;5054214;28;20487;-62
2020/12/11 00:04:47;;;;;;;46.25;22.73;;;1.50;99.90;;;;;;5053531;28;20029;-61
2020/12/11 00:07:12;;;;;;;44.53;23.58;;;1.50;99.90;;;;;;5052858;28;20031;-62
2020/12/11 00:09:38;;;;;;;46.97;23.60;;;1.50;99.90;;;;;;5056837;28;20104;-61
2020/12/11 00:12:03;;;;;;;49.63;24.38;;;1.50;99.90;;;;;;5050662;28;20038;-63
2020/12/11 00:14:29;;;;;;;50.03;23.30;;;1.50;99.90;;;;;;5037589;28;20029;-64
2020/12/11 00:16:54;;;;;;;55.72;23.77;;;1.50;99.90;;;;;;5033541;28;20044;-63
2020/12/11 00:19:20;;;;;;;46.90;23.00;;;1.50;99.90;;;;;;5034115;28;20063;-64
2020/12/11 00:21:48;;;;;;;46.85;22.15;;;1.50;99.90;;;;;;5033338;28;20076;-63
2020/12/11 00:24:13;;;;;;;49.13;23.08;;;1.60;99.90;;;;;;5033774;28;20506;-63
2020/12/11 00:26:39;;;;;;;52.78;23.80;;;1.60;99.90;;;;;;5033135;28;20018;-63
2020/12/11 00:29:05;;;;;;;47.63;23.23;;;1.60;99.90;;;;;;5033998;28;20028;-62
2020/12/11 00:31:31;;;;;;;44.75;22.20;;;1.50;99.90;;;;;;5033149;28;20028;-62
2020/12/11 00:33:56;;;;;;;39.95;20.90;;;1.60;99.90;;;;;;5029184;28;20034;-63
2020/12/11 00:36:22;;;;;;;45.03;21.45;;;1.60;99.90;;;;;;5032272;28;20088;-63
2020/12/11 00:38:48;;;;;;;46.92;23.25;;;1.50;99.90;;;;;;5038982;28;20040;-63
2020/12/11 00:41:14;;;;;;;39.20;20.13;;;1.50;99.90;;;;;;5028506;28;20403;-65
2020/12/11 00:43:40;;;;;;;44.22;21.70;;;1.50;99.90;;;;;;5035117;28;20087;-63
2020/12/11 00:46:06;;;;;;;45.90;21.88;;;1.50;99.90;;;;;;5032484;28;20426;-64
2020/12/11 00:48:31;;;;;;;47.13;22.00;;;1.50;99.90;;;;;;5002781;28;20041;-65
2020/12/11 00:50:57;;;;;;;46.55;21.75;;;1.50;99.90;;;;;;5031690;28;20463;-64
2020/12/11 00:53:23;;;;;;;50.67;22.52;;;1.50;99.90;;;;;;5035906;28;20104;-63
2020/12/11 00:55:48;;;;;;;46.10;22.48;;;1.50;99.90;;;;;;5032892;28;20101;-62
2020/12/11 00:58:14;;;;;;;41.78;21.63;;;1.50;99.90;;;;;;5030512;28;20026;-64
2020/12/11 01:00:40;;;;;;;44.67;20.63;;;1.50;99.90;;;;;;5034488;28;20055;-63
2020/12/11 01:03:05;;;;;;;47.67;21.73;;;1.50;99.90;;;;;;5049902;28;20029;-63
2020/12/11 01:05:32;;;;;;;42.20;21.75;;;1.50;99.90;;;;;;5033502;28;20425;-61
2020/12/11 01:07:58;;;;;;;42.08;22.02;;;1.50;99.90;;;;;;5033995;28;20505;-62
2020/12/11 01:10:24;;;;;;;40.85;21.23;;;1.40;99.90;;;;;;5031214;28;20025;-65
2020/12/11 01:12:50;;;;;;;41.83;22.02;;;1.40;99.90;;;;;;5038381;28;20045;-63
2020/12/11 01:15:15;;;;;;;43.78;23.25;;;1.40;99.90;;;;;;5035818;28;20032;-63
2020/12/11 01:17:41;;;;;;;43.90;22.15;;;1.40;99.90;;;;;;5031321;28;20041;-63
2020/12/11 01:20:06;;;;;;;44.30;21.63;;;1.40;99.90;;;;;;5032080;28;20442;-62
2020/12/11 01:22:32;;;;;;;45.00;22.60;;;1.40;99.90;;;;;;5046455;28;20052;-63
2020/12/11 01:24:59;;;;;;;48.50;22.55;;;1.40;99.90;;;;;;5017407;28;20110;-63
2020/12/11 01:27:24;;;;;;;52.08;23.20;;;1.30;99.90;;;;;;5051957;28;20036;-63
2020/12/11 01:29:50;;;;;;;44.28;22.42;;;1.30;99.90;;;;;;5034470;28;20013;-63
2020/12/11 01:32:16;;;;;;;44.45;21.95;;;1.30;99.90;;;;;;5031758;28;20081;-62
2020/12/11 01:34:41;;;;;;;45.60;22.08;;;1.30;99.90;;;;;;5030997;28;20018;-63
2020/12/11 01:37:06;;;;;;;46.97;22.67;;;1.30;99.90;;;;;;5038029;28;20025;-62
2020/12/11 01:39:32;;;;;;;44.97;21.88;;;1.30;99.90;;;;;;5028341;28;20243;-63
2020/12/11 01:41:59;;;;;;;46.55;21.73;;;1.30;99.90;;;;;;5035576;28;20025;-61
2020/12/11 01:44:25;;;;;;;46.15;22.65;;;1.30;99.90;;;;;;5029905;28;20083;-63
2020/12/11 01:46:51;;;;;;;43.78;21.48;;;1.30;99.90;;;;;;5042073;28;20021;-61
2020/12/11 01:49:16;;;;;;;53.58;22.88;;;1.20;99.90;;;;;;5046436;28;20024;-61
2020/12/11 01:51:44;;;;;;;48.85;22.45;;;1.20;99.90;;;;;;5031590;28;20029;-62
2020/12/11 01:54:10;;;;;;;49.22;22.90;;;1.20;99.90;;;;;;5039478;28;20407;-62
2020/12/11 01:56:43;;;;;;;51.70;23.17;;;1.20;99.90;;;;;;5036844;28;20025;-63
2020/12/11 01:59:15;;;;;;;49.65;22.08;;;1.20;99.90;;;;;;5031650;28;20450;-62
2020/12/11 02:01:42;;;;;;;52.30;22.95;;;1.10;99.90;;;;;;5030048;28;20087;-61
2020/12/11 02:04:07;;;;;;;49.00;21.38;;;1.10;99.90;;;;;;5036660;28;20038;-61
2020/12/11 02:06:34;;;;;;;48.85;23.38;;;1.10;99.90;;;;;;5044957;28;20433;-62
2020/12/11 02:09:01;;;;;;;49.38;23.58;;;1.10;99.90;;;;;;5034743;28;20025;-61
2020/12/11 02:11:26;;;;;;;46.08;21.88;;;1.10;99.90;;;;;;5035015;28;20376;-64
2020/12/11 02:13:52;;;;;;;40.60;21.08;;;1.10;99.90;;;;;;5050427;28;20740;-61
2020/12/11 02:16:21;;;;;;;41.03;20.38;;;1.10;99.90;;;;;;5049061;28;20071;-62
2020/12/11 02:18:48;;;;;;;44.15;19.63;;;1.10;99.90;;;;;;5049952;28;20067;-62
2020/12/11 02:21:14;;;;;;;46.97;21.95;;;1.10;99.90;;;;;;5049845;28;20398;-62
2020/12/11 02:23:42;;;;;;;41.50;20.73;;;1.10;99.90;;;;;;5050988;28;20021;-63
2020/12/11 02:26:08;;;;;;;41.92;20.77;;;1.20;99.90;;;;;;5049000;28;20032;-62
2020/12/11 02:28:34;;;;;;;44.38;21.23;;;1.20;99.90;;;;;;5051154;28;20363;-62
2020/12/11 02:31:00;;;;;;;44.50;20.35;;;1.20;99.90;;;;;;5052964;28;20067;-62
2020/12/11 02:33:26;;;;;;;42.35;21.92;;;1.20;99.90;;;;;;5057872;28;20075;-63
2020/12/11 02:35:52;;;;;;;40.88;21.60;;;1.20;99.90;;;;;;5059555;28;20029;-62
2020/12/11 02:38:18;;;;;;;42.40;20.95;;;1.20;99.90;;;;;;5055465;28;20063;-63
2020/12/11 02:40:49;;;;;;;43.08;22.38;;;1.20;99.90;;;;;;5057770;28;20028;-62
2020/12/11 02:43:16;;;;;;;38.08;19.80;;;1.20;99.90;;;;;;5058518;28;20029;-63
2020/12/11 02:45:44;;;;;;;37.78;20.35;;;1.20;99.90;;;;;;5054834;28;20032;-64
2020/12/11 02:48:09;;;;;;;46.38;20.90;;;1.20;99.90;;;;;;5056466;28;20505;-62
2020/12/11 02:50:35;;;;;;;39.53;21.17;;;1.20;99.90;;;;;;5053914;28;20096;-64
2020/12/11 02:53:01;;;;;;;46.53;21.08;;;1.30;99.90;;;;;;5050191;28;20051;-62
2020/12/11 02:55:26;;;;;;;37.30;20.23;;;1.30;99.90;;;;;;5052744;28;20033;-63
2020/12/11 02:57:52;;;;;;;37.40;19.70;;;1.30;99.90;;;;;;5050474;28;20033;-62
2020/12/11 03:00:17;;;;;;;40.00;20.40;;;1.30;99.90;;;;;;5054373;28;20037;-64
2020/12/11 03:02:43;;;;;;;43.10;20.05;;;1.30;99.90;;;;;;5052025;28;20028;-63
2020/12/11 03:05:08;;;;;;;42.83;20.52;;;1.40;99.90;;;;;;5051427;28;20025;-62
2020/12/11 03:07:34;;;;;;;44.72;19.48;;;1.40;99.90;;;;;;5049605;28;20092;-62
2020/12/11 03:09:59;;;;;;;33.70;18.20;;;1.40;99.90;;;;;;5049900;28;20032;-62
2020/12/11 03:12:25;;;;;;;45.85;19.40;;;1.40;99.90;;;;;;5050561;28;20037;-62
2020/12/11 03:14:50;;;;;;;37.28;20.30;;;1.40;99.90;;;;;;5050906;28;20039;-60
2020/12/11 03:17:16;;;;;;;36.72;19.08;;;1.40;99.90;;;;;;5049811;28;20040;-63
2020/12/11 03:19:41;;;;;;;39.22;18.90;;;1.40;99.90;;;;;;5047226;28;20507;-62
2020/12/11 03:22:07;;;;;;;41.88;19.00;;;1.40;99.90;;;;;;5050087;28;20078;-63
2020/12/11 03:24:32;;;;;;;37.47;19.83;;;1.40;99.90;;;;;;5049585;28;20044;-62
2020/12/11 03:26:58;;;;;;;39.63;19.27;;;1.40;99.90;;;;;;5048850;28;20479;-62
2020/12/11 03:29:23;;;;;;;41.88;17.65;;;1.40;99.90;;;;;;5050162;28;20596;-64
2020/12/11 03:31:49;;;;;;;33.20;18.05;;;1.50;99.90;;;;;;5050142;28;20021;-63
2020/12/11 03:34:14;;;;;;;34.85;17.83;;;1.50;99.90;;;;;;5051772;28;20036;-61
2020/12/11 03:36:40;;;;;;;36.78;18.27;;;1.50;99.90;;;;;;5053676;28;20075;-62
2020/12/11 03:39:06;;;;;;;35.20;18.30;;;1.60;99.90;;;;;;5050457;28;20033;-62
2020/12/11 03:41:31;;;;;;;36.88;17.88;;;1.50;99.90;;;;;;5050918;28;20017;-61
2020/12/11 03:43:57;;;;;;;34.25;19.55;;;1.50;99.90;;;;;;5048862;28;20036;-64
2020/12/11 03:46:22;;;;;;;34.92;18.10;;;1.50;99.90;;;;;;5050355;28;20056;-63
2020/12/11 03:48:49;;;;;;;35.22;18.42;;;1.60;99.90;;;;;;5050458;28;20071;-62
2020/12/11 03:51:19;;;;;;;33.08;17.25;;;1.60;99.90;;;;;;5050367;28;20075;-62
2020/12/11 03:53:46;;;;;;;36.60;18.65;;;1.60;99.90;;;;;;5050755;28;20044;-61
2020/12/11 03:56:15;;;;;;;34.28;18.15;;;1.60;99.90;;;;;;5049257;28;20029;-62
2020/12/11 03:58:41;;;;;;;33.58;17.35;;;1.60;99.90;;;;;;5050048;28;20025;-62
2020/12/11 04:01:14;;;;;;;33.97;18.17;;;1.60;99.90;;;;;;5050121;28;20056;-63
2020/12/11 04:03:40;;;;;;;36.95;19.27;;;1.60;99.90;;;;;;5047900;28;20025;-62
2020/12/11 04:06:15;;;;;;;32.53;17.27;;;1.70;99.90;;;;;;5049616;28;20028;-62
2020/12/11 04:08:41;;;;;;;29.83;16.73;;;1.70;99.90;;;;;;5048880;28;20483;-63
2020/12/11 04:11:09;;;;;;;32.10;17.23;;;1.80;99.90;;;;;;5050156;28;20028;-63
2020/12/11 04:13:35;;;;;;;34.10;17.50;;;1.80;99.90;;;;;;5049065;28;21482;-63
2020/12/11 04:16:01;;;;;;;31.33;17.35;;;1.80;99.90;;;;;;5049860;28;20025;-63
2020/12/11 04:18:27;;;;;;;29.52;16.63;;;1.90;99.90;;;;;;5050956;28;20029;-62
2020/12/11 04:20:53;;;;;;;28.70;15.77;;;2.00;99.90;;;;;;5050374;28;20549;-62
2020/12/11 04:23:18;;;;;;;34.13;18.45;;;2.00;99.90;;;;;;5051171;28;20028;-63
2020/12/11 04:25:44;;;;;;;35.20;17.70;;;2.00;99.90;;;;;;5048050;28;20029;-63
2020/12/11 04:28:10;;;;;;;31.08;17.08;;;2.00;99.90;;;;;;5051030;28;20039;-61
2020/12/11 04:30:35;;;;;;;33.20;17.52;;;2.00;99.90;;;;;;5053269;28;20025;-62
2020/12/11 04:33:01;;;;;;;31.63;16.77;;;2.00;99.90;;;;;;5051962;28;20021;-63
2020/12/11 04:35:27;;;;;;;34.42;17.25;;;2.00;99.90;;;;;;5053087;28;20438;-62
2020/12/11 04:37:52;;;;;;;38.22;16.85;;;2.00;99.90;;;;;;5053487;28;20036;-64
2020/12/11 04:40:18;;;;;;;29.73;16.33;;;2.00;99.90;;;;;;5053310;28;20067;-63
2020/12/11 04:42:46;;;;;;;31.90;16.88;;;2.00;99.90;;;;;;5050578;28;20475;-62
2020/12/11 04:45:12;;;;;;;30.38;15.93;;;2.00;99.90;;;;;;5053252;28;20029;-62
2020/12/11 04:47:43;;;;;;;32.38;17.42;;;2.10;99.90;;;;;;5037885;28;20017;-62
2020/12/11 04:50:11;;;;;;;32.13;16.70;;;2.00;99.90;;;;;;5053633;28;20501;-63
2020/12/11 04:52:41;;;;;;;30.75;16.52;;;2.00;99.90;;;;;;5053027;28;20394;-62
2020/12/11 04:55:11;;;;;;;37.65;18.73;;;2.00;99.90;;;;;;5042734;28;20087;-63
2020/12/11 04:57:45;;;;;;;30.30;15.93;;;2.00;99.90;;;;;;5052722;28;20108;-63
2020/12/11 05:00:10;;;;;;;32.22;16.70;;;2.10;99.90;;;;;;5052564;28;20028;-62
2020/12/11 05:02:39;;;;;;;35.15;17.30;;;2.10;99.90;;;;;;5051727;28;20488;-62
2020/12/11 05:05:05;;;;;;;35.72;17.30;;;2.10;99.90;;;;;;5051023;28;20490;-62
2020/12/11 05:07:30;;;;;;;28.67;16.38;;;2.10;99.90;;;;;;5052284;28;20060;-64
2020/12/11 05:09:57;;;;;;;30.25;16.33;;;2.00;99.90;;;;;;5050029;28;20025;-62
2020/12/11 05:12:23;;;;;;;30.10;16.10;;;2.00;99.90;;;;;;5059804;23;20643;-59
2020/12/11 05:15:01;;;;;;;32.78;16.70;;;2.00;99.90;;;;;;5070868;28;20021;-59
2020/12/11 05:17:29;;;;;;;34.50;16.92;;;2.00;99.90;;;;;;5069581;28;21459;-58
2020/12/11 05:19:57;;;;;;;32.83;17.42;;;2.00;99.90;;;;;;5071004;28;20047;-59
2020/12/11 05:22:24;;;;;;;30.40;16.17;;;2.00;99.90;;;;;;5068659;28;20309;-59
2020/12/11 05:24:54;;;;;;;27.38;16.08;;;2.00;99.90;;;;;;5059092;28;20171;-60
2020/12/11 05:27:29;;;;;;;28.75;16.92;;;2.00;99.90;;;;;;5062744;28;20553;-59
2020/12/11 05:29:58;;;;;;;35.35;17.48;;;2.00;99.90;;;;;;5072326;28;20036;-59
2020/12/11 05:32:34;;;;;;;31.27;16.70;;;2.00;99.90;;;;;;5065196;28;20044;-60
2020/12/11 05:35:00;;;;;;;31.42;16.83;;;2.00;99.90;;;;;;5069842;28;20059;-60
2020/12/11 05:37:26;;;;;;;31.00;16.23;;;2.00;99.90;;;;;;5066881;28;20056;-60
2020/12/11 05:39:51;;;;;;;30.25;16.27;;;2.00;99.90;;;;;;5060564;28;20197;-61
2020/12/11 05:42:17;;;;;;;31.38;16.27;;;2.10;99.90;;;;;;5064832;28;20067;-60
2020/12/11 05:44:42;;;;;;;29.55;16.20;;;2.10;99.90;;;;;;5060698;28;20033;-59
2020/12/11 05:47:18;;;;;;;29.85;16.80;;;2.10;99.90;;;;;;5070541;28;20020;-60
2020/12/11 05:49:44;;;;;;;31.08;16.65;;;2.10;99.90;;;;;;5065834;28;20027;-60
2020/12/11 05:52:15;;;;;;;31.20;16.65;;;2.20;99.90;;;;;;5063186;28;20017;-60
2020/12/11 05:54:47;;;;;;;36.25;16.20;;;2.10;99.90;;;;;;5068097;28;20016;-60
2020/12/11 05:57:15;;;;;;;28.77;15.95;;;2.20;99.90;;;;;;5058153;28;20426;-60
2020/12/11 05:59:42;;;;;;;27.30;15.85;;;2.20;99.90;;;;;;5069032;28;20032;-59
2020/12/11 06:02:09;;;;;;;27.75;15.88;;;2.20;99.90;;;;;;5066467;28;20013;-60
2020/12/11 06:04:36;;;;;;;28.23;16.05;;;2.20;99.90;;;;;;5075938;28;20027;-60
2020/12/11 06:07:02;;;;;;;29.15;16.20;;;2.20;99.90;;;;;;5057540;28;20021;-60
2020/12/11 06:09:34;;;;;;;31.35;16.98;;;2.20;99.90;;;;;;5052440;28;20023;-61
2020/12/11 06:12:02;;;;;;;29.67;16.55;;;2.20;99.90;;;;;;5084009;28;20055;-60
2020/12/11 06:14:44;;;;;;;28.05;15.93;;;2.20;99.90;;;;;;5079754;28;20390;-60
2020/12/11 06:17:11;;;;;;;30.92;16.92;;;2.20;99.90;;;;;;5086811;28;20028;-60
2020/12/11 06:19:40;;;;;;;28.33;16.70;;;2.20;99.90;;;;;;5092506;28;20024;-59
2020/12/11 06:22:09;;;;;;;29.88;16.88;;;2.20;99.90;;;;;;5087732;28;20355;-62
2020/12/11 06:24:35;;;;;;;28.80;15.18;;;2.30;99.90;;;;;;5089910;28;20055;-59
2020/12/11 06:27:02;;;;;;;35.00;17.63;;;2.30;99.90;;;;;;5096592;28;20560;-60
2020/12/11 06:29:33;;;;;;;28.90;16.20;;;2.30;99.90;;;;;;5079591;28;20066;-60
2020/12/11 06:31:59;;;;;;;29.27;16.08;;;2.30;99.90;;;;;;5091046;28;20027;-60
2020/12/11 06:34:25;;;;;;;32.03;16.98;;;2.30;99.90;;;;;;5083844;28;20020;-59
2020/12/11 06:36:52;;;;;;;34.00;15.80;;;2.30;99.90;;;;;;5080533;28;20024;-59
2020/12/11 06:39:39;;;;;;;30.45;15.82;;;2.30;99.90;;;;;;5088236;28;20112;-59
2020/12/11 06:42:06;;;;;;;28.17;15.70;;;2.30;99.90;;;;;;5091115;28;20058;-60
2020/12/11 06:44:32;;;;;;;26.13;15.15;;;2.30;99.90;;;;;;5088273;28;20031;-58
2020/12/11 06:47:10;;;;;;;27.15;14.43;;;2.40;99.90;;;;;;5090905;28;20016;-59
2020/12/11 06:49:57;;;;;;;30.55;17.05;;;2.40;99.90;;;;;;5070346;28;20103;-59
2020/12/11 06:52:33;;;;;;;33.30;16.30;;;2.40;99.90;;;;;;5079577;28;20115;-59
2020/12/11 06:54:59;;;;;;;35.03;16.67;;;2.40;99.90;;;;;;5087145;28;20099;-60
2020/12/11 06:57:32;;;;;;;29.67;16.75;;;2.40;99.90;;;;;;5100180;28;20574;-60
2020/12/11 06:59:58;;;;;;;32.05;16.10;;;2.40;99.90;;;;;;5069528;28;20469;-60
2020/12/11 07:02:27;;;;;;;27.10;14.93;;;2.50;99.90;;;;;;5058781;28;20122;-59
2020/12/11 07:04:52;;;;;;;26.67;14.90;;;2.50;99.90;;;;;;5079633;28;20086;-60
2020/12/11 07:07:28;;;;;;;28.83;15.77;;;2.50;99.90;;;;;;5097073;28;20486;-60
2020/12/11 07:09:54;;;;;;;29.85;15.70;;;2.50;99.90;;;;;;5100824;28;20435;-60
2020/12/11 07:12:19;;;;;;;29.08;15.98;;;2.50;99.90;;;;;;5078215;28;20024;-60
2020/12/11 07:14:45;;;;;;;27.15;15.73;;;2.60;99.90;;;;;;5089573;28;20054;-60
2020/12/11 07:17:24;;;;;;;29.17;15.93;;;2.60;99.90;;;;;;5088395;28;20107;-60
2020/12/11 07:19:49;;;;;;;28.42;15.13;;;2.60;99.90;;;;;;5087429;28;20031;-59
2020/12/11 07:22:15;;;;;;;30.52;15.80;;;2.60;99.90;;;;;;5095978;28;20024;-59
2020/12/11 07:24:41;;;;;;;30.95;17.05;;;2.60;99.90;;;;;;5093583;28;20523;-59
2020/12/11 07:27:06;;;;;;;28.00;15.40;;;2.60;99.90;;;;;;5104880;28;20024;-60
2020/12/11 07:29:34;;;;;;;28.10;16.13;;;2.60;99.90;;;;;;5085100;28;20524;-61
2020/12/11 07:31:59;;;;;;;27.42;15.50;;;2.70;99.90;;;;;;5071003;28;20024;-59
2020/12/11 07:34:27;;;;;;;28.45;15.20;;;2.70;99.90;;;;;;5085167;28;20028;-59
2020/12/11 07:36:57;;;;;;;29.67;15.15;;;2.70;99.90;;;;;;5071256;28;20063;-60
2020/12/11 07:39:28;;;;;;;35.90;15.70;;;2.70;99.90;;;;;;5087695;28;20024;-60
2020/12/11 07:41:55;;;;;;;28.15;15.82;;;2.80;99.90;;;;;;5081041;28;20039;-60
2020/12/11 07:44:24;;;;;;;29.33;14.65;;;2.70;99.90;;;;;;5093004;28;20427;-60
2020/12/11 07:46:55;;;;;;;29.25;15.02;;;2.70;99.90;;;;;;5078758;28;20536;-60
2020/12/11 07:49:20;;;;;;;29.73;15.82;;;2.80;99.90;;;;;;5078806;28;20029;-60
2020/12/11 07:51:47;;;;;;;33.92;16.17;;;2.80;99.90;;;;;;5085302;28;20063;-60
2020/12/11 07:54:13;;;;;;;29.98;16.80;;;2.80;99.90;;;;;;5080754;28;20436;-59
2020/12/11 07:56:39;;;;;;;41.80;17.75;;;2.70;99.90;;;;;;5077699;28;20024;-60
2020/12/11 07:59:15;;;;;;;38.80;18.77;;;2.70;99.90;;;;;;5086721;28;20493;-60
2020/12/11 08:01:46;;;;;;;37.40;18.83;;;2.60;99.90;;;;;;5086746;28;20448;-59
2020/12/11 08:04:13;;;;;;;37.95;19.63;;;2.60;99.90;;;;;;5092580;28;20359;-60
2020/12/11 08:06:38;;;;;;;43.63;19.92;;;2.60;99.90;;;;;;5092695;28;20043;-60
2020/12/11 08:09:11;;;;;;;44.72;21.70;;;2.60;99.90;;;;;;5088404;28;20012;-61
2020/12/11 08:11:38;;;;;;;48.75;21.65;;;2.60;99.90;;;;;;5073668;28;20418;-59
2020/12/11 08:14:04;;;;;;;45.63;21.63;;;2.50;99.90;;;;;;5093174;28;20032;-59
2020/12/11 08:16:30;;;;;;;52.85;23.83;;;2.50;99.90;;;;;;5075274;28;20482;-59
2020/12/11 08:18:57;;;;;;;51.33;23.02;;;2.40;99.90;;;;;;5086096;28;20545;-59
2020/12/11 08:21:33;;;;;;;49.70;22.90;;;2.50;99.90;;;;;;5082571;28;20039;-60
2020/12/11 08:23:59;;;;;;;51.28;22.40;;;2.50;99.90;;;;;;5080483;28;20024;-59
2020/12/11 08:26:26;;;;;;;46.50;21.23;;;2.50;99.90;;;;;;5093849;28;20020;-60
2020/12/11 08:29:06;;;;;;;40.63;20.67;;;2.50;99.90;;;;;;5093393;28;20474;-59
2020/12/11 08:31:42;;;;;;;41.03;19.88;;;2.50;99.90;;;;;;5073476;28;20033;-59
2020/12/11 08:34:13;;;;;;;40.20;19.88;;;2.50;99.90;;;;;;5085986;28;20060;-60
2020/12/11 08:36:41;;;;;;;36.85;18.40;;;2.60;99.90;;;;;;5104142;28;20032;-59
2020/12/11 08:39:11;;;;;;;40.00;18.23;;;2.60;99.90;;;;;;5079970;28;20032;-59
2020/12/11 08:41:46;;;;;;;36.78;18.40;;;2.70;99.90;;;;;;5074975;28;20490;-60
2020/12/11 08:44:27;;;;;;;35.85;17.23;;;2.80;99.90;;;;;;5071785;28;20546;-59
2020/12/11 08:47:11;;;;;;;31.10;15.60;;;2.80;99.90;;;;;;5064856;28;20024;-59
2020/12/11 08:49:53;;;;;;;28.52;16.15;;;2.90;99.90;;;;;;5078282;28;20045;-60
2020/12/11 08:52:19;;;;;;;30.63;15.35;;;2.90;99.90;;;;;;5093698;28;20485;-60
2020/12/11 08:54:46;;;;;;;32.28;16.65;;;2.90;99.90;;;;;;5077303;28;20059;-59
2020/12/11 08:57:12;;;;;;;33.80;17.02;;;2.90;99.90;;;;;;5084541;28;20032;-60
2020/12/11 08:59:38;;;;;;;33.50;15.38;;;3.00;99.90;;;;;;5089235;28;20031;-61
2020/12/11 09:02:03;;;;;;;27.33;15.32;;;3.00;99.90;;;;;;5099726;28;20020;-59
2020/12/11 09:04:29;;;;;;;31.33;15.35;;;3.10;99.90;;;;;;5091797;28;20504;-60
2020/12/11 09:06:55;;;;;;;26.08;15.02;;;3.10;99.90;;;;;;5087715;28;20070;-60
2020/12/11 09:09:21;;;;;;;25.20;14.52;;;3.10;99.90;;;;;;5090777;28;20024;-59
2020/12/11 09:11:47;;;;;;;29.35;14.32;;;3.20;99.90;;;;;;5101010;28;20549;-61
2020/12/11 09:14:13;;;;;;;27.35;14.88;;;3.20;99.90;;;;;;5089416;28;20036;-60
2020/12/11 09:16:40;;;;;;;26.98;14.25;;;3.30;99.90;;;;;;5089588;28;20016;-60
2020/12/11 09:19:05;;;;;;;26.63;14.68;;;3.30;99.90;;;;;;5087401;28;20032;-60
2020/12/11 09:21:31;;;;;;;26.13;13.88;;;3.30;99.90;;;;;;5092516;28;20476;-61
2020/12/11 09:23:56;;;;;;;26.55;12.80;;;3.40;99.90;;;;;;5085804;28;20028;-59
2020/12/11 09:26:25;;;;;;;28.52;13.20;;;3.40;99.90;;;;;;5091790;28;20019;-60
2020/12/11 09:28:55;;;;;;;30.23;13.77;;;3.40;99.90;;;;;;5093615;28;20527;-60
2020/12/11 09:31:22;;;;;;;25.38;13.45;;;3.50;99.90;;;;;;5092502;28;20024;-60
2020/12/11 09:33:48;;;;;;;29.45;13.30;;;3.50;99.90;;;;;;5091753;28;20016;-60
2020/12/11 09:36:14;;;;;;;28.55;12.52;;;3.50;99.90;;;;;;5093915;28;20077;-60
2020/12/11 09:38:39;;;;;;;26.05;13.75;;;3.50;99.90;;;;;;5104333;28;20075;-59
2020/12/11 09:41:06;;;;;;;23.13;13.60;;;3.50;99.90;;;;;;5094472;28;20047;-59
2020/12/11 09:48:38;;;;;;;24.13;13.48;;;3.50;99.90;;;;;;5094435;28;20462;-60
2020/12/11 09:51:26;;;;;;;26.77;13.98;;;3.50;99.90;;;;;;5096553;28;20036;-60
2020/12/11 09:54:11;;;;;;;23.52;13.60;;;3.50;99.90;;;;;;5100068;28;20047;-59
2020/12/11 09:56:37;;;;;;;30.20;14.45;;;3.40;99.90;;;;;;5089683;28;20036;-59
2020/12/11 09:59:11;;;;;;;25.95;14.00;;;3.40;99.90;;;;;;5091830;28;20030;-60
2020/12/11 10:04:20;;;;;;;31.13;14.20;;;3.40;99.90;;;;;;5073424;28;20474;-60
2020/12/11 10:06:46;;;;;;;27.38;13.93;;;3.50;99.90;;;;;;5086533;28;20090;-60
2020/12/11 10:09:12;;;;;;;27.33;15.00;;;3.40;99.90;;;;;;5082187;28;20474;-59
2020/12/11 10:11:37;;;;;;;30.15;15.48;;;3.40;99.90;;;;;;5089918;28;20031;-60
2020/12/11 10:14:16;;;;;;;27.17;15.50;;;3.40;99.90;;;;;;5086455;28;20079;-60
2020/12/11 10:16:42;;;;;;;33.25;18.10;;;3.40;99.90;;;;;;5072770;28;20082;-59
2020/12/11 10:19:07;;;;;;;38.95;17.60;;;3.30;99.90;;;;;;5094598;28;20038;-60
2020/12/11 10:21:34;;;;;;;44.58;18.15;;;3.30;99.90;;;;;;5095110;28;20020;-60
2020/12/11 10:23:59;;;;;;;34.15;17.30;;;3.30;99.90;;;;;;5079315;28;20392;-59
2020/12/11 10:26:25;;;;;;;33.55;17.08;;;3.40;99.90;;;;;;5089066;28;20016;-59
2020/12/11 10:28:50;;;;;;;35.92;17.85;;;3.40;99.90;;;;;;5075471;28;20094;-59
2020/12/11 10:31:17;;;;;;;37.70;18.20;;;3.30;99.90;;;;;;5071675;28;20056;-59
2020/12/11 10:33:42;;;;;;;39.50;17.95;;;3.30;99.90;;;;;;5086241;28;20113;-59
2020/12/11 10:36:08;;;;;;;34.60;18.25;;;3.30;99.90;;;;;;5092580;28;20028;-59
2020/12/11 10:38:33;;;;;;;39.17;17.55;;;3.30;99.90;;;;;;5091497;28;20607;-59
2020/12/11 10:40:59;;;;;;;37.30;17.90;;;3.30;99.90;;;;;;5085387;28;20021;-61
2020/12/11 10:43:24;;;;;;;34.47;18.00;;;3.40;99.90;;;;;;5072310;28;20115;-58
2020/12/11 10:45:50;;;;;;;35.50;17.15;;;3.40;99.90;;;;;;5085696;28;20028;-58
2020/12/11 10:48:15;;;;;;;34.17;17.35;;;3.40;99.90;;;;;;5105714;28;20052;-58
2020/12/11 10:50:41;;;;;;;31.17;16.52;;;3.50;99.90;;;;;;5091195;28;20024;-58
2020/12/11 10:53:06;;;;;;;27.88;16.38;;;3.50;99.90;;;;;;5076523;28;20020;-59
2020/12/11 10:55:32;;;;;;;31.67;18.30;;;3.60;99.90;;;;;;5088631;28;20516;-59
2020/12/11 10:57:57;;;;;;;35.17;17.27;;;3.60;99.90;;;;;;5077816;28;20032;-60
2020/12/11 11:00:23;;;;;;;31.55;17.38;;;3.60;99.90;;;;;;5090596;28;20078;-60
2020/12/11 11:02:48;;;;;;;32.83;16.83;;;3.60;99.90;;;;;;5076180;28;20033;-60
2020/12/11 11:05:14;;;;;;;34.22;17.98;;;3.60;99.90;;;;;;5087636;28;20028;-59
2020/12/11 11:07:40;;;;;;;37.75;18.48;;;3.60;99.90;;;;;;5073070;28;20016;-59
2020/12/11 11:12:42;;;;;;;30.45;16.77;;;3.60;99.90;;;;;;5088408;23;20041;-64
2020/12/11 11:18:02;;;;;;;28.67;17.02;;;3.70;99.90;;;;;;5038830;28;20419;-64
2020/12/11 11:21:02;;;;;;;30.67;17.35;;;3.70;99.90;;;;;;5043438;28;20028;-62
2020/12/11 11:26:18;;;;;;;33.78;17.27;;;3.80;99.90;;;;;;5053763;28;20021;-63
2020/12/11 11:28:44;;;;;;;32.97;17.77;;;3.80;99.90;;;;;;5047510;28;20017;-65
2020/12/11 11:31:11;;;;;;;29.40;16.92;;;3.90;99.90;;;;;;5039482;28;20025;-63
2020/12/11 11:33:37;;;;;;;32.78;17.30;;;3.80;99.90;;;;;;5049316;28;20079;-63
2020/12/11 11:36:03;;;;;;;30.13;16.35;;;3.90;99.90;;;;;;5048529;28;20029;-62
2020/12/11 11:38:28;;;;;;;35.67;18.17;;;3.90;99.90;;;;;;5045561;28;20052;-62
2020/12/11 11:40:54;;;;;;;32.70;17.13;;;3.90;99.90;;;;;;5047430;28;20108;-63
2020/12/11 11:43:37;;;;;;;35.13;17.88;;;3.90;99.90;;;;;;5047498;28;20021;-63
2020/12/11 11:46:03;;;;;;;32.35;16.67;;;4.00;99.90;;;;;;5049181;28;20080;-63
2020/12/11 11:48:28;;;;;;;33.13;17.95;;;4.00;99.90;;;;;;5055491;28;20025;-63
2020/12/11 11:51:07;;;;;;;32.05;18.10;;;4.00;99.90;;;;;;5049306;28;20029;-63
2020/12/11 11:53:32;;;;;;;31.30;17.33;;;4.00;99.90;;;;;;5054674;28;20025;-64
2020/12/11 11:55:58;;;;;;;32.88;18.73;;;4.00;99.90;;;;;;5051332;28;20040;-63
2020/12/11 11:58:23;;;;;;;32.75;17.13;;;4.00;99.90;;;;;;5045792;28;20021;-62
2020/12/11 12:00:49;;;;;;;36.03;18.23;;;4.00;99.90;;;;;;5046026;28;20082;-63
2020/12/11 12:03:15;;;;;;;32.70;18.70;;;4.00;99.90;;;;;;5046945;28;20079;-63
2020/12/11 12:05:42;;;;;;;33.30;19.10;;;4.00;99.90;;;;;;5053327;28;20021;-63
2020/12/11 12:08:08;;;;;;;33.75;17.73;;;4.10;99.90;;;;;;5049305;28;20021;-63
2020/12/11 12:10:33;;;;;;;34.22;18.33;;;4.10;99.90;;;;;;5041014;28;20025;-63
2020/12/11 12:12:59;;;;;;;32.20;18.90;;;4.10;99.90;;;;;;5055729;28;20041;-63
2020/12/11 12:15:27;;;;;;;33.58;19.08;;;4.10;99.90;;;;;;5070866;28;20128;-63
2020/12/11 12:20:48;;;;;;;31.40;18.50;;;4.10;99.90;;;;;;5059726;28;20033;-63
2020/12/11 12:23:41;;;;;;;32.45;18.65;;;4.10;99.90;;;;;;5073542;28;20407;-62
2020/12/11 12:28:54;;;;;;;34.58;19.13;;;4.10;99.90;;;;;;5072368;28;20441;-62
2020/12/11 12:31:25;;;;;;;35.30;19.42;;;4.10;99.90;;;;;;5059233;28;20017;-63
2020/12/11 12:34:25;;;;;;;32.47;18.52;;;4.10;99.90;;;;;;5073482;28;20021;-63
2020/12/11 12:37:01;;;;;;;32.72;18.90;;;4.20;99.90;;;;;;5050867;28;20027;-63
2020/12/11 12:39:38;;;;;;;33.47;18.10;;;4.30;99.90;;;;;;5041454;28;20017;-64
2020/12/11 12:44:48;;;;;;;33.70;18.85;;;4.30;99.90;;;;;;5070294;28;20051;-63
2020/12/11 12:47:14;;;;;;;35.60;18.38;;;4.30;99.90;;;;;;5056799;28;20033;-63
2020/12/11 12:49:39;;;;;;;31.83;18.30;;;4.30;99.90;;;;;;5068931;28;20032;-65
2020/12/11 12:52:05;;;;;;;29.60;17.85;;;4.30;99.90;;;;;;5062038;28;20024;-65
2020/12/11 12:54:30;;;;;;;30.25;16.77;;;4.30;99.90;;;;;;5057672;28;20234;-64
2020/12/11 12:59:48;;;;;;;34.30;18.92;;;4.30;99.90;;;;;;5066991;28;20322;-64
2020/12/11 13:05:05;;;;;;;29.67;16.90;;;4.30;99.90;;;;;;5071555;28;20025;-62
2020/12/11 13:07:31;;;;;;;30.38;16.73;;;4.40;99.90;;;;;;5062960;28;20167;-62
2020/12/11 13:09:57;;;;;;;32.28;17.27;;;4.40;99.90;;;;;;5063867;28;20391;-63